Time;durP1;ratioP1;P1;durP2;ratioP2;P2;SDS_P1;SDS_P2;PMS_P1;PMS_P2;Temp;Humidity;BMP_temperature;BMP_pressure;BME280_temperature;BME280_humidity;BME280_pressure;Samples;Min_cycle;Max_cycle;Signal;HPM_P1;HPM_P2
2023/11/30 00:02:16;;;;;;;;;;;19.00;54.40;;;;;;5106857;28;19919;-35
2023/11/30 00:04:42;;;;;;;;;;;19.00;54.70;;;;;;5104475;28;19916;-35
2023/11/30 00:07:11;;;;;;;;;;;19.10;54.70;;;;;;5101417;28;19947;-35
2023/11/30 00:09:37;;;;;;;;;;;19.10;54.80;;;;;;5106558;28;19916;-39
2023/11/30 00:12:03;;;;;;;;;;;19.10;54.70;;;;;;5088885;28;19911;-35
2023/11/30 00:14:29;;;;;;;;;;;19.00;54.50;;;;;;5106521;28;19908;-35
2023/11/30 00:16:55;;;;;;;;;;;18.90;54.50;;;;;;5106575;28;19912;-35
2023/11/30 00:19:21;;;;;;;;;;;18.90;54.50;;;;;;5105961;28;19959;-35
2023/11/30 00:21:47;;;;;;;;;;;19.00;54.80;;;;;;5105427;28;19922;-34
2023/11/30 00:24:13;;;;;;;;;;;19.10;54.80;;;;;;5109505;28;19922;-35
2023/11/30 00:26:39;;;;;;;;;;;19.10;54.80;;;;;;5112601;28;19912;-35
2023/11/30 00:29:05;;;;;;;;;;;19.00;54.80;;;;;;5106474;28;20077;-35
2023/11/30 00:31:31;;;;;;;;;;;19.00;54.70;;;;;;5106225;28;20022;-35
2023/11/30 00:33:57;;;;;;;;;;;18.90;54.50;;;;;;5106131;28;19919;-35
2023/11/30 00:36:23;;;;;;;;;;;18.90;54.60;;;;;;5104934;28;19912;-35
2023/11/30 00:38:49;;;;;;;;;;;19.00;54.80;;;;;;5106291;28;19991;-34
2023/11/30 00:41:15;;;;;;;;;;;19.10;54.60;;;;;;5106200;28;19908;-34
2023/11/30 00:43:40;;;;;;;;;;;19.10;54.80;;;;;;5105415;28;19937;-34
2023/11/30 00:46:08;;;;;;;;;;;19.00;54.70;;;;;;5105854;28;19911;-34
2023/11/30 00:48:34;;;;;;;;;;;19.00;54.60;;;;;;5105205;28;19963;-34
2023/11/30 00:51:00;;;;;;;;;;;18.90;54.60;;;;;;5106069;28;19912;-34
2023/11/30 00:53:26;;;;;;;;;;;18.90;54.60;;;;;;5105174;28;19973;-34
2023/11/30 00:55:52;;;;;;;;;;;18.90;54.70;;;;;;5108969;28;19934;-34
2023/11/30 00:58:18;;;;;;;;;;;19.00;54.90;;;;;;5108262;28;20021;-35
2023/11/30 01:00:44;;;;;;;;;;;19.00;54.80;;;;;;5107964;28;19908;-35
2023/11/30 01:03:09;;;;;;;;;;;19.00;54.70;;;;;;5099845;28;19981;-35
2023/11/30 01:05:35;;;;;;;;;;;18.90;54.70;;;;;;5104096;28;19912;-34
2023/11/30 01:08:01;;;;;;;;;;;18.90;54.70;;;;;;5104515;28;19908;-34
2023/11/30 01:10:27;;;;;;;;;;;18.90;54.70;;;;;;5103575;28;19919;-35
2023/11/30 01:12:53;;;;;;;;;;;19.00;54.70;;;;;;5107414;28;19926;-36
2023/11/30 01:15:19;;;;;;;;;;;19.00;54.80;;;;;;5100391;28;20357;-34
2023/11/30 01:17:45;;;;;;;;;;;19.00;54.60;;;;;;5107656;28;19927;-34
2023/11/30 01:20:11;;;;;;;;;;;18.90;54.50;;;;;;5109294;28;19908;-33
2023/11/30 01:22:37;;;;;;;;;;;18.80;54.70;;;;;;5101188;28;19969;-34
2023/11/30 01:25:03;;;;;;;;;;;18.80;54.50;;;;;;5096467;28;19919;-34
2023/11/30 01:27:29;;;;;;;;;;;18.80;54.70;;;;;;5094350;28;19924;-34
2023/11/30 01:29:55;;;;;;;;;;;18.70;54.70;;;;;;5104742;28;19912;-35
2023/11/30 01:32:21;;;;;;;;;;;18.70;54.40;;;;;;5103968;28;19916;-35
2023/11/30 01:34:46;;;;;;;;;;;18.80;54.20;;;;;;5106215;28;20398;-34
2023/11/30 01:37:12;;;;;;;;;;;18.90;54.10;;;;;;5098307;28;20002;-34
2023/11/30 01:39:38;;;;;;;;;;;18.90;54.50;;;;;;5082262;28;19928;-35
2023/11/30 01:42:04;;;;;;;;;;;18.80;54.60;;;;;;5099451;28;20135;-35
2023/11/30 01:44:30;;;;;;;;;;;18.80;54.80;;;;;;5089581;28;20019;-34
2023/11/30 01:46:56;;;;;;;;;;;19.30;55.00;;;;;;5099923;28;19918;-34
2023/11/30 01:49:22;;;;;;;;;;;18.80;55.10;;;;;;5103360;28;20182;-36
2023/11/30 01:51:48;;;;;;;;;;;18.80;55.10;;;;;;5097801;28;20527;-36
2023/11/30 01:54:14;;;;;;;;;;;18.90;55.10;;;;;;5100957;28;19959;-35
2023/11/30 01:56:40;;;;;;;;;;;19.00;55.00;;;;;;5102603;28;20426;-41
2023/11/30 01:59:26;;;;;;;;;;;19.00;55.00;;;;;;5095825;28;19920;-41
2023/11/30 02:01:52;;;;;;;;;;;19.10;55.10;;;;;;5036507;28;19913;-41
2023/11/30 02:04:18;;;;;;;;;;;19.10;55.00;;;;;;5036680;28;19933;-42
2023/11/30 02:06:44;;;;;;;;;;;19.10;55.00;;;;;;5035857;28;19909;-40
2023/11/30 02:09:11;;;;;;;;;;;19.10;55.10;;;;;;5038426;28;19976;-39
2023/11/30 02:11:37;;;;;;;;;;;19.10;55.20;;;;;;5031055;28;19917;-41
2023/11/30 02:14:04;;;;;;;;;;;19.10;55.00;;;;;;5032971;28;20118;-40
2023/11/30 02:16:30;;;;;;;;;;;19.20;55.10;;;;;;5033333;28;19912;-44
2023/11/30 02:18:56;;;;;;;;;;;19.20;55.00;;;;;;5035594;28;19921;-41
2023/11/30 02:21:23;;;;;;;;;;;19.20;55.00;;;;;;5033968;28;19917;-39
2023/11/30 02:23:50;;;;;;;;;;;19.20;54.30;;;;;;5035141;28;19909;-41
2023/11/30 02:26:17;;;;;;;;;;;19.40;54.10;;;;;;5041970;28;19912;-38
2023/11/30 02:28:45;;;;;;;;;;;19.50;54.10;;;;;;5038378;28;19924;-38
2023/11/30 02:31:11;;;;;;;;;;;19.70;54.00;;;;;;5037069;28;19913;-38
2023/11/30 02:33:38;;;;;;;;;;;19.80;53.90;;;;;;5037810;28;19917;-38
2023/11/30 02:36:04;;;;;;;;;;;20.00;53.70;;;;;;5032651;28;19913;-38
2023/11/30 02:38:30;;;;;;;;;;;20.10;53.60;;;;;;5048847;28;19920;-38
2023/11/30 02:40:57;;;;;;;;;;;20.30;53.50;;;;;;5074035;28;19912;-39
2023/11/30 02:43:23;;;;;;;;;;;20.50;53.40;;;;;;5101497;28;19927;-39
2023/11/30 02:45:50;;;;;;;;;;;20.70;53.30;;;;;;5099814;28;19908;-38
2023/11/30 02:48:16;;;;;;;;;;;20.90;53.20;;;;;;5099038;28;19919;-38
2023/11/30 02:50:42;;;;;;;;;;;21.00;53.20;;;;;;5096053;28;19912;-37
2023/11/30 02:53:08;;;;;;;;;;;21.20;53.10;;;;;;5097034;28;19908;-38
2023/11/30 02:55:33;;;;;;;;;;;21.30;53.00;;;;;;5100151;28;19930;-37
2023/11/30 02:57:59;;;;;;;;;;;21.40;52.90;;;;;;5101618;28;19988;-38
2023/11/30 03:00:25;;;;;;;;;;;21.60;52.80;;;;;;5098427;28;19912;-38
2023/11/30 03:02:51;;;;;;;;;;;21.80;53.00;;;;;;5100910;28;20391;-38
2023/11/30 03:05:17;;;;;;;;;;;21.90;52.90;;;;;;5071890;28;20038;-38
2023/11/30 03:07:43;;;;;;;;;;;22.10;52.80;;;;;;5097948;28;19916;-38
2023/11/30 03:10:09;;;;;;;;;;;22.20;52.80;;;;;;5095685;28;19908;-38
2023/11/30 03:12:34;;;;;;;;;;;22.30;53.50;;;;;;5099339;28;19999;-38
2023/11/30 03:15:00;;;;;;;;;;;22.30;53.50;;;;;;5103120;28;19911;-38
2023/11/30 03:17:26;;;;;;;;;;;22.40;53.50;;;;;;5098836;28;19912;-38
2023/11/30 03:19:52;;;;;;;;;;;22.40;53.80;;;;;;5094634;28;19912;-38
2023/11/30 03:22:18;;;;;;;;;;;22.40;52.40;;;;;;5090087;28;19948;-38
2023/11/30 03:24:44;;;;;;;;;;;22.40;52.00;;;;;;5102531;28;19915;-38
2023/11/30 03:27:11;;;;;;;;;;;22.40;51.80;;;;;;5098125;28;19934;-43
2023/11/30 03:29:41;;;;;;;;;;;22.30;52.10;;;;;;5096495;28;19912;-39
2023/11/30 03:32:07;;;;;;;;;;;22.20;52.40;;;;;;5099440;28;19919;-39
2023/11/30 03:34:33;;;;;;;;;;;22.10;52.30;;;;;;5092305;28;19908;-39
2023/11/30 03:36:59;;;;;;;;;;;22.10;52.30;;;;;;5093270;28;19923;-38
2023/11/30 03:39:25;;;;;;;;;;;22.20;52.70;;;;;;5083124;28;19920;-39
2023/11/30 03:41:51;;;;;;;;;;;22.20;52.90;;;;;;5099827;28;19926;-38
2023/11/30 03:44:16;;;;;;;;;;;22.30;52.90;;;;;;5097058;28;19931;-39
2023/11/30 03:46:42;;;;;;;;;;;22.50;51.60;;;;;;5098848;28;19916;-38
2023/11/30 03:49:08;;;;;;;;;;;22.50;51.90;;;;;;5101856;28;19919;-38
2023/11/30 03:51:34;;;;;;;;;;;22.60;51.50;;;;;;5098161;28;20379;-39
2023/11/30 03:54:00;;;;;;;;;;;22.70;51.50;;;;;;5099086;28;19908;-39
2023/11/30 03:56:28;;;;;;;;;;;22.80;51.60;;;;;;5115978;28;19908;-39
2023/11/30 03:58:53;;;;;;;;;;;22.80;51.70;;;;;;5090008;28;20357;-39
2023/11/30 04:01:23;;;;;;;;;;;22.80;51.70;;;;;;5100286;28;19915;-39
2023/11/30 04:03:48;;;;;;;;;;;22.80;51.70;;;;;;5102202;28;19918;-39
2023/11/30 04:06:23;;;;;;;;;;;22.90;51.70;;;;;;5104868;28;19908;-39
2023/11/30 04:08:50;;;;;;;;;;;22.90;51.70;;;;;;5101461;28;19908;-39
2023/11/30 04:11:16;;;;;;;;;;;23.10;50.60;;;;;;5105795;28;19919;-39
2023/11/30 04:13:44;;;;;;;;;;;23.10;51.10;;;;;;5105187;28;20006;-39
2023/11/30 04:16:11;;;;;;;;;;;23.10;50.90;;;;;;5101757;28;20030;-39
2023/11/30 04:18:36;;;;;;;;;;;23.20;50.50;;;;;;5096093;28;19924;-38
2023/11/30 04:21:02;;;;;;;;;;;23.30;50.50;;;;;;5094252;28;19912;-39
2023/11/30 04:23:28;;;;;;;;;;;23.30;50.70;;;;;;5100863;28;19915;-39
2023/11/30 04:25:54;;;;;;;;;;;23.40;50.90;;;;;;5106341;28;19918;-39
2023/11/30 04:28:21;;;;;;;;;;;23.40;50.90;;;;;;5108894;28;19930;-39
2023/11/30 04:30:46;;;;;;;;;;;23.50;50.00;;;;;;5104852;28;19912;-39
2023/11/30 04:33:12;;;;;;;;;;;23.50;50.50;;;;;;5102939;28;19937;-38
2023/11/30 04:35:38;;;;;;;;;;;23.60;50.30;;;;;;5101201;28;19973;-38
2023/11/30 04:38:04;;;;;;;;;;;23.60;49.90;;;;;;5106686;28;19927;-38
2023/11/30 04:40:30;;;;;;;;;;;23.60;50.20;;;;;;5107591;28;19986;-38
2023/11/30 04:42:56;;;;;;;;;;;23.60;50.20;;;;;;5103065;28;19911;-39
2023/11/30 04:45:22;;;;;;;;;;;23.60;50.40;;;;;;5098036;28;19916;-39
2023/11/30 04:47:48;;;;;;;;;;;23.60;49.70;;;;;;5104360;28;20642;-38
2023/11/30 04:50:14;;;;;;;;;;;23.50;49.60;;;;;;5104156;28;19908;-38
2023/11/30 04:52:40;;;;;;;;;;;23.30;49.70;;;;;;5103306;28;19908;-38
2023/11/30 04:55:06;;;;;;;;;;;23.30;49.60;;;;;;5104025;28;20628;-38
2023/11/30 04:57:32;;;;;;;;;;;23.20;49.20;;;;;;5108411;28;20015;-38
2023/11/30 04:59:58;;;;;;;;;;;23.30;49.20;;;;;;5111827;28;19908;-38
2023/11/30 05:02:24;;;;;;;;;;;23.30;49.30;;;;;;5103573;28;20430;-38
2023/11/30 05:04:50;;;;;;;;;;;23.30;49.30;;;;;;5094115;28;20007;-38
2023/11/30 05:07:16;;;;;;;;;;;23.40;48.70;;;;;;5102256;28;19962;-38
2023/11/30 05:09:42;;;;;;;;;;;23.30;48.90;;;;;;5087683;28;19912;-39
2023/11/30 05:12:08;;;;;;;;;;;23.30;49.20;;;;;;5098337;28;19912;-38
2023/11/30 05:14:33;;;;;;;;;;;23.40;49.90;;;;;;5095576;28;19912;-37
2023/11/30 05:16:59;;;;;;;;;;;23.40;49.70;;;;;;5099962;28;19934;-38
2023/11/30 05:19:25;;;;;;;;;;;23.50;49.90;;;;;;5116198;27;19916;-38
2023/11/30 05:21:51;;;;;;;;;;;23.50;49.60;;;;;;5083589;28;20342;-38
2023/11/30 05:24:17;;;;;;;;;;;23.60;49.40;;;;;;5100045;28;19922;-38
2023/11/30 05:26:43;;;;;;;;;;;23.60;49.70;;;;;;5103880;28;19948;-38
2023/11/30 05:29:09;;;;;;;;;;;23.60;49.70;;;;;;5094843;28;20316;-38
2023/11/30 05:31:35;;;;;;;;;;;23.60;48.80;;;;;;5095656;28;19912;-38
2023/11/30 05:34:02;;;;;;;;;;;23.50;49.30;;;;;;5099233;28;19954;-38
2023/11/30 05:36:28;;;;;;;;;;;23.30;49.20;;;;;;5095840;28;19912;-38
2023/11/30 05:38:54;;;;;;;;;;;23.20;49.40;;;;;;5101161;28;19920;-38
2023/11/30 05:41:20;;;;;;;;;;;23.10;49.10;;;;;;5103305;28;19908;-38
2023/11/30 05:43:46;;;;;;;;;;;23.10;49.20;;;;;;5102576;28;19966;-39
2023/11/30 05:46:12;;;;;;;;;;;23.20;48.90;;;;;;5102469;28;19934;-39
2023/11/30 05:48:38;;;;;;;;;;;23.20;49.20;;;;;;5094899;28;20051;-38
2023/11/30 05:51:04;;;;;;;;;;;23.20;49.20;;;;;;5103422;28;20335;-38
2023/11/30 05:53:30;;;;;;;;;;;23.20;49.30;;;;;;5102108;28;19963;-38
2023/11/30 05:55:55;;;;;;;;;;;23.20;49.50;;;;;;5098342;28;19919;-38
2023/11/30 05:58:21;;;;;;;;;;;23.30;49.80;;;;;;5102336;28;19920;-39
2023/11/30 06:00:47;;;;;;;;;;;23.30;49.80;;;;;;5094083;28;19918;-39
2023/11/30 06:03:13;;;;;;;;;;;23.40;49.90;;;;;;5098146;28;20369;-39
2023/11/30 06:05:39;;;;;;;;;;;23.50;49.50;;;;;;5096438;28;19912;-39
2023/11/30 06:08:05;;;;;;;;;;;23.60;49.00;;;;;;5102975;28;19911;-39
2023/11/30 06:10:31;;;;;;;;;;;23.60;49.50;;;;;;5104555;28;19959;-38
2023/11/30 06:12:57;;;;;;;;;;;23.60;49.10;;;;;;5100071;28;19915;-39
2023/11/30 06:15:22;;;;;;;;;;;23.60;48.90;;;;;;5103342;28;19916;-38
2023/11/30 06:17:48;;;;;;;;;;;23.40;49.10;;;;;;5101582;28;19987;-38
2023/11/30 06:20:14;;;;;;;;;;;23.30;49.20;;;;;;5100935;28;19915;-38
2023/11/30 06:22:40;;;;;;;;;;;23.20;49.40;;;;;;5102683;28;20265;-38
2023/11/30 06:25:07;;;;;;;;;;;23.10;49.10;;;;;;5086776;28;19919;-39
2023/11/30 06:27:33;;;;;;;;;;;23.10;49.80;;;;;;5102994;28;20035;-40
2023/11/30 06:29:59;;;;;;;;;;;23.20;49.20;;;;;;5095872;28;20352;-38
2023/11/30 06:32:25;;;;;;;;;;;23.20;49.30;;;;;;5101294;28;19919;-39
2023/11/30 06:34:51;;;;;;;;;;;23.20;49.30;;;;;;5076791;28;19912;-39
2023/11/30 06:37:17;;;;;;;;;;;23.20;49.20;;;;;;5089515;28;19912;-39
2023/11/30 06:39:42;;;;;;;;;;;23.20;49.30;;;;;;5103384;28;19919;-39
2023/11/30 06:42:08;;;;;;;;;;;23.20;49.40;;;;;;5102167;28;19912;-38
2023/11/30 06:44:34;;;;;;;;;;;23.30;49.30;;;;;;5101744;28;19919;-38
2023/11/30 06:47:00;;;;;;;;;;;23.40;49.00;;;;;;5081369;28;19934;-38
2023/11/30 06:49:26;;;;;;;;;;;23.50;49.30;;;;;;5099289;28;19912;-38
2023/11/30 06:51:52;;;;;;;;;;;23.60;49.10;;;;;;5102516;28;19916;-39
2023/11/30 06:54:18;;;;;;;;;;;23.60;49.20;;;;;;5114616;28;19908;-39
2023/11/30 06:56:44;;;;;;;;;;;23.60;48.90;;;;;;5099636;28;19915;-39
2023/11/30 06:59:13;;;;;;;;;;;23.50;48.80;;;;;;5099504;28;19920;-39
2023/11/30 07:01:39;;;;;;;;;;;23.40;48.80;;;;;;5096245;28;19983;-39
2023/11/30 07:04:05;;;;;;;;;;;23.30;49.10;;;;;;5101781;28;19912;-39
2023/11/30 07:06:31;;;;;;;;;;;23.20;49.30;;;;;;5102052;28;19958;-39
2023/11/30 07:08:57;;;;;;;;;;;23.20;49.20;;;;;;5100288;28;19911;-39
2023/11/30 07:11:23;;;;;;;;;;;23.20;48.80;;;;;;5099095;28;19912;-39
2023/11/30 07:13:49;;;;;;;;;;;23.20;48.90;;;;;;5091658;28;19959;-39
2023/11/30 07:16:14;;;;;;;;;;;23.30;49.30;;;;;;5091214;28;19908;-39
2023/11/30 07:18:40;;;;;;;;;;;23.20;49.20;;;;;;5100342;28;19941;-39
2023/11/30 07:21:11;;;;;;;;;;;23.10;49.10;;;;;;5102155;28;19947;-39
2023/11/30 07:23:37;;;;;;;;;;;23.00;49.30;;;;;;5094900;28;19915;-39
2023/11/30 07:26:09;;;;;;;;;;;23.20;49.20;;;;;;5098125;28;19916;-39
2023/11/30 07:28:35;;;;;;;;;;;23.30;49.50;;;;;;5101066;28;19912;-39
2023/11/30 07:31:01;;;;;;;;;;;23.40;48.90;;;;;;5097533;28;19923;-39
2023/11/30 07:33:26;;;;;;;;;;;23.60;48.90;;;;;;5099766;28;19952;-39
2023/11/30 07:35:52;;;;;;;;;;;23.60;48.90;;;;;;5107208;28;19908;-39
2023/11/30 07:38:18;;;;;;;;;;;23.50;48.60;;;;;;5106663;28;19952;-39
2023/11/30 07:40:44;;;;;;;;;;;23.40;49.20;;;;;;5106379;28;20016;-39
2023/11/30 07:43:11;;;;;;;;;;;23.30;48.90;;;;;;5105918;28;20325;-38
2023/11/30 07:45:37;;;;;;;;;;;23.10;49.10;;;;;;5098551;28;19955;-38
2023/11/30 07:48:03;;;;;;;;;;;23.00;48.90;;;;;;5106499;28;19916;-40
2023/11/30 07:50:29;;;;;;;;;;;23.10;48.70;;;;;;5103772;28;20022;-39
2023/11/30 07:52:55;;;;;;;;;;;23.10;48.70;;;;;;5097750;28;19908;-40
2023/11/30 07:55:21;;;;;;;;;;;23.20;48.80;;;;;;5102621;28;19923;-39
2023/11/30 07:57:48;;;;;;;;;;;23.20;49.00;;;;;;5100154;28;19919;-39
2023/11/30 08:00:15;;;;;;;;;;;23.10;48.90;;;;;;5105072;28;20018;-38
2023/11/30 08:02:43;;;;;;;;;;;23.00;48.90;;;;;;5116313;27;19915;-38
2023/11/30 08:05:12;;;;;;;;;;;23.10;49.30;;;;;;5103007;28;19911;-39
2023/11/30 08:07:38;;;;;;;;;;;23.20;49.40;;;;;;5103963;28;19971;-39
2023/11/30 08:10:05;;;;;;;;;;;23.30;49.20;;;;;;5104606;28;19912;-39
2023/11/30 08:12:31;;;;;;;;;;;23.50;48.70;;;;;;5102279;28;19912;-39
2023/11/30 08:14:57;;;;;;;;;;;23.50;49.00;;;;;;5105908;28;19912;-39
2023/11/30 08:17:23;;;;;;;;;;;23.50;49.00;;;;;;5102572;28;19934;-39
2023/11/30 08:19:50;;;;;;;;;;;23.40;48.80;;;;;;5097025;28;20323;-39
2023/11/30 08:22:16;;;;;;;;;;;23.30;48.80;;;;;;5071906;28;19912;-39
2023/11/30 08:24:42;;;;;;;;;;;23.20;49.10;;;;;;5102800;28;19922;-39
2023/11/30 08:27:08;;;;;;;;;;;23.00;48.90;;;;;;5100392;28;19934;-39
2023/11/30 08:29:36;;;;;;;;;;;23.00;48.90;;;;;;5101619;28;19912;-39
2023/11/30 08:32:02;;;;;;;;;;;23.10;48.90;;;;;;5103314;28;19918;-39
2023/11/30 08:34:28;;;;;;;;;;;23.20;48.80;;;;;;5103801;28;19977;-39
2023/11/30 08:36:54;;;;;;;;;;;23.20;49.00;;;;;;5100586;28;20488;-39
2023/11/30 08:39:23;;;;;;;;;;;23.20;49.00;;;;;;5105617;28;20456;-38
2023/11/30 08:41:50;;;;;;;;;;;23.00;48.90;;;;;;5101823;28;19912;-38
2023/11/30 08:44:16;;;;;;;;;;;23.10;49.20;;;;;;5104479;28;19928;-38
2023/11/30 08:46:42;;;;;;;;;;;23.20;49.10;;;;;;5104502;28;19908;-38
2023/11/30 08:49:10;;;;;;;;;;;23.30;49.40;;;;;;5099648;28;19908;-38
2023/11/30 08:51:38;;;;;;;;;;;23.40;49.10;;;;;;5103125;28;19912;-38
2023/11/30 08:54:04;;;;;;;;;;;23.50;48.80;;;;;;5109133;27;20365;-39
2023/11/30 08:56:30;;;;;;;;;;;23.60;48.80;;;;;;5100122;28;19918;-39
2023/11/30 08:58:56;;;;;;;;;;;23.50;48.70;;;;;;5104402;28;19919;-39
2023/11/30 09:01:22;;;;;;;;;;;23.40;48.70;;;;;;5097916;28;19916;-38
2023/11/30 09:03:48;;;;;;;;;;;23.30;48.50;;;;;;5100464;28;20690;-38
2023/11/30 09:06:14;;;;;;;;;;;23.20;49.20;;;;;;5098227;28;19908;-37
2023/11/30 09:08:40;;;;;;;;;;;23.10;49.40;;;;;;5101967;28;19935;-39
2023/11/30 09:11:06;;;;;;;;;;;23.10;49.10;;;;;;5099963;28;20315;-38
2023/11/30 09:13:33;;;;;;;;;;;23.10;48.70;;;;;;5099871;28;19907;-38
2023/11/30 09:15:59;;;;;;;;;;;23.20;49.00;;;;;;5099109;28;19908;-38
2023/11/30 09:18:25;;;;;;;;;;;23.20;48.90;;;;;;5095905;28;19920;-38
2023/11/30 09:20:50;;;;;;;;;;;23.10;49.10;;;;;;5095512;28;20332;-37
2023/11/30 09:23:16;;;;;;;;;;;22.90;49.00;;;;;;5098853;28;19912;-38
2023/11/30 09:25:42;;;;;;;;;;;23.10;49.00;;;;;;5103263;28;20064;-37
2023/11/30 09:28:09;;;;;;;;;;;23.20;49.10;;;;;;5095624;28;19908;-38
2023/11/30 09:30:35;;;;;;;;;;;23.40;48.70;;;;;;5095519;28;19950;-38
2023/11/30 09:33:01;;;;;;;;;;;23.50;48.60;;;;;;5097926;28;20002;-38
2023/11/30 09:35:27;;;;;;;;;;;23.60;48.80;;;;;;5102813;28;19975;-38
2023/11/30 09:37:53;;;;;;;;;;;23.50;48.50;;;;;;5097852;28;19920;-38
2023/11/30 09:40:19;;;;;;;;;;;23.30;48.70;;;;;;5106359;28;19918;-38
2023/11/30 09:42:46;;;;;;;;;;;23.20;48.90;;;;;;5082900;28;19912;-37
2023/11/30 09:45:13;;;;;;;;;;;23.10;48.80;;;;;;5103059;28;19986;-38
2023/11/30 09:47:38;;;;;;;;;;;23.00;48.60;;;;;;5103261;28;19946;-38
2023/11/30 09:50:05;;;;;;;;;;;23.10;48.50;;;;;;5098546;28;19912;-38
2023/11/30 09:52:31;;;;;;;;;;;23.20;48.70;;;;;;5101205;28;19919;-38
2023/11/30 09:54:57;;;;;;;;;;;23.20;49.00;;;;;;5100785;28;20475;-38
2023/11/30 09:57:23;;;;;;;;;;;23.10;49.30;;;;;;5098016;28;19916;-38
2023/11/30 09:59:50;;;;;;;;;;;23.00;48.80;;;;;;5101200;28;19918;-40
2023/11/30 10:02:17;;;;;;;;;;;23.00;49.10;;;;;;5102280;28;19937;-39
2023/11/30 10:04:44;;;;;;;;;;;23.10;48.90;;;;;;5098444;28;20379;-39
2023/11/30 10:07:31;;;;;;;;;;;23.30;48.80;;;;;;5103498;28;19911;-39
2023/11/30 10:09:57;;;;;;;;;;;23.40;48.30;;;;;;5000788;28;19913;-39
2023/11/30 10:12:24;;;;;;;;;;;23.60;48.30;;;;;;4997951;28;19918;-38
2023/11/30 10:14:58;;;;;;;;;;;23.60;48.80;;;;;;5000740;28;19910;-38
2023/11/30 10:17:26;;;;;;;;;;;23.50;48.40;;;;;;4995542;28;19973;-39
2023/11/30 10:19:51;;;;;;;;;;;23.30;48.50;;;;;;5000951;28;19917;-38
2023/11/30 10:22:17;;;;;;;;;;;23.10;48.70;;;;;;4999242;28;19921;-38
2023/11/30 10:24:43;;;;;;;;;;;23.00;49.00;;;;;;5000615;28;19965;-38
2023/11/30 10:27:09;;;;;;;;;;;23.10;48.70;;;;;;4999413;28;19914;-38
2023/11/30 10:29:37;;;;;;;;;;;23.00;48.60;;;;;;4998558;28;19909;-38
2023/11/30 10:32:03;;;;;;;;;;;23.10;48.80;;;;;;4998032;28;19909;-38
2023/11/30 10:34:29;;;;;;;;;;;23.20;49.00;;;;;;4999357;28;19917;-37
2023/11/30 10:36:55;;;;;;;;;;;23.10;48.90;;;;;;4995506;28;19920;-36
2023/11/30 10:39:22;;;;;;;;;;;23.10;48.90;;;;;;5000192;28;19957;-37
2023/11/30 10:41:55;;;;;;;;;;;23.00;48.80;;;;;;4997669;28;19921;-36
2023/11/30 10:44:33;;;;;;;;;;;23.20;48.60;;;;;;4993508;28;19917;-37
2023/11/30 10:46:59;;;;;;;;;;;23.30;49.00;;;;;;5024286;28;19909;-37
2023/11/30 10:49:25;;;;;;;;;;;23.40;48.40;;;;;;5041820;28;19940;-37
2023/11/30 10:51:51;;;;;;;;;;;23.60;48.40;;;;;;5059448;28;20452;-37
2023/11/30 10:54:30;;;;;;;;;;;23.60;48.70;;;;;;5060443;28;19909;-37
2023/11/30 10:56:56;;;;;;;;;;;23.50;48.80;;;;;;5059024;28;20414;-38
2023/11/30 10:59:24;;;;;;;;;;;23.40;48.70;;;;;;5067364;28;19917;-37
2023/11/30 11:01:50;;;;;;;;;;;23.20;48.80;;;;;;5057030;28;19931;-38
2023/11/30 11:04:16;;;;;;;;;;;23.10;48.60;;;;;;5061778;28;19912;-38
2023/11/30 11:06:42;;;;;;;;;;;23.10;48.70;;;;;;5060788;28;19925;-38
2023/11/30 11:09:08;;;;;;;;;;;23.20;48.30;;;;;;5068388;28;19908;-37
2023/11/30 11:11:37;;;;;;;;;;;23.20;48.40;;;;;;5059170;28;19916;-38
2023/11/30 11:14:03;;;;;;;;;;;23.30;48.90;;;;;;5064424;28;20569;-38
2023/11/30 11:16:41;;;;;;;;;;;23.20;48.80;;;;;;5066662;28;19913;-39
2023/11/30 11:19:10;;;;;;;;;;;23.10;48.70;;;;;;5060346;28;20012;-38
2023/11/30 11:21:36;;;;;;;;;;;22.90;48.70;;;;;;5064155;28;19935;-38
2023/11/30 11:24:03;;;;;;;;;;;22.90;49.00;;;;;;5062323;28;19915;-38
2023/11/30 11:26:44;;;;;;;;;;;22.90;49.00;;;;;;5061854;28;19916;-39
2023/11/30 11:29:12;;;;;;;;;;;23.00;48.60;;;;;;5042628;28;19971;-38
2023/11/30 11:31:38;;;;;;;;;;;23.00;48.80;;;;;;5063462;28;19999;-39
2023/11/30 11:34:05;;;;;;;;;;;23.10;48.90;;;;;;5063105;28;19916;-38
2023/11/30 11:36:34;;;;;;;;;;;23.10;48.50;;;;;;5062324;28;20358;-39
2023/11/30 11:39:01;;;;;;;;;;;23.00;48.60;;;;;;5071010;28;19931;-38
2023/11/30 11:41:27;;;;;;;;;;;22.90;48.80;;;;;;5063882;28;19913;-39
2023/11/30 11:43:53;;;;;;;;;;;22.80;48.80;;;;;;5065878;28;20055;-39
2023/11/30 11:46:19;;;;;;;;;;;22.80;48.60;;;;;;5063393;28;19913;-42
2023/11/30 11:48:46;;;;;;;;;;;22.80;48.50;;;;;;5049222;28;20028;-39
2023/11/30 11:51:12;;;;;;;;;;;22.90;48.90;;;;;;5067719;28;19927;-39
2023/11/30 11:53:39;;;;;;;;;;;22.90;48.50;;;;;;5068913;28;20459;-39
2023/11/30 11:56:10;;;;;;;;;;;22.90;48.60;;;;;;5049110;28;20019;-39
2023/11/30 11:58:36;;;;;;;;;;;22.70;48.90;;;;;;5060765;28;19921;-39
2023/11/30 12:01:02;;;;;;;;;;;22.60;49.00;;;;;;5063938;28;19917;-40
2023/11/30 12:03:28;;;;;;;;;;;22.60;48.80;;;;;;5067185;28;19954;-39
2023/11/30 12:05:54;;;;;;;;;;;22.60;48.80;;;;;;5062889;28;19913;-41
2023/11/30 12:08:35;;;;;;;;;;;22.70;48.80;;;;;;5066749;28;19919;-38
2023/11/30 12:11:00;;;;;;;;;;;22.70;48.90;;;;;;5063539;28;19913;-38
2023/11/30 12:13:27;;;;;;;;;;;22.80;48.80;;;;;;5065599;28;19912;-39
2023/11/30 12:15:53;;;;;;;;;;;22.80;48.60;;;;;;5062220;28;19912;-40
2023/11/30 12:18:20;;;;;;;;;;;22.80;48.70;;;;;;5064579;28;19944;-40
2023/11/30 12:20:47;;;;;;;;;;;22.70;48.70;;;;;;5063898;28;19921;-40
2023/11/30 12:23:13;;;;;;;;;;;22.60;48.60;;;;;;5057841;28;19912;-39
2023/11/30 12:25:39;;;;;;;;;;;22.70;48.80;;;;;;5058992;28;19923;-38
2023/11/30 12:28:05;;;;;;;;;;;22.70;48.90;;;;;;5059705;28;19980;-39
2023/11/30 12:30:31;;;;;;;;;;;22.80;48.90;;;;;;5059969;28;19960;-40
2023/11/30 12:32:57;;;;;;;;;;;22.70;48.70;;;;;;5057391;28;19917;-39
2023/11/30 12:35:24;;;;;;;;;;;22.60;48.70;;;;;;5054275;28;19932;-40
2023/11/30 12:37:50;;;;;;;;;;;22.50;49.00;;;;;;5056516;28;19944;-39
2023/11/30 12:40:16;;;;;;;;;;;22.50;48.90;;;;;;5062900;28;19912;-40
2023/11/30 12:42:42;;;;;;;;;;;22.50;49.10;;;;;;5078628;28;19968;-38
2023/11/30 12:45:08;;;;;;;;;;;22.60;49.00;;;;;;5075938;28;20391;-38
2023/11/30 12:47:34;;;;;;;;;;;22.70;49.10;;;;;;5073523;28;19940;-41
2023/11/30 12:50:00;;;;;;;;;;;22.70;49.20;;;;;;5079624;28;20480;-44
2023/11/30 12:52:26;;;;;;;;;;;22.70;49.10;;;;;;5078816;28;19920;-43
2023/11/30 12:54:52;;;;;;;;;;;22.50;49.00;;;;;;5077834;28;20067;-38
2023/11/30 12:57:19;;;;;;;;;;;22.40;48.90;;;;;;5079372;28;19912;-38
2023/11/30 12:59:44;;;;;;;;;;;22.60;49.10;;;;;;5079404;28;20020;-38
2023/11/30 13:02:10;;;;;;;;;;;22.70;49.60;;;;;;5082305;28;20649;-38
2023/11/30 13:04:38;;;;;;;;;;;22.70;49.10;;;;;;5079943;28;19997;-44
2023/11/30 13:07:04;;;;;;;;;;;22.70;49.00;;;;;;5070905;28;20311;-39
2023/11/30 13:09:34;;;;;;;;;;;22.80;49.30;;;;;;5068985;28;19908;-39
2023/11/30 13:12:01;;;;;;;;;;;22.70;49.00;;;;;;5075779;28;19947;-39
2023/11/30 13:14:28;;;;;;;;;;;22.60;48.90;;;;;;5073857;28;19912;-39
2023/11/30 13:16:54;;;;;;;;;;;22.40;49.00;;;;;;5076382;28;19923;-39
2023/11/30 13:19:20;;;;;;;;;;;22.40;49.10;;;;;;5075631;28;19963;-39
2023/11/30 13:21:46;;;;;;;;;;;22.40;49.00;;;;;;5072436;28;19919;-39
2023/11/30 13:24:32;;;;;;;;;;;22.50;49.40;;;;;;5014126;28;19918;-39
2023/11/30 13:26:58;;;;;;;;;;;22.50;49.20;;;;;;5011152;28;19935;-38
2023/11/30 13:29:23;;;;;;;;;;;22.60;49.00;;;;;;5013498;28;19913;-39
2023/11/30 13:31:49;;;;;;;;;;;22.50;49.20;;;;;;5014956;28;19932;-40
2023/11/30 13:34:15;;;;;;;;;;;22.40;49.20;;;;;;5010641;28;19920;-40
2023/11/30 13:36:41;;;;;;;;;;;22.30;49.50;;;;;;5023342;28;19913;-40
2023/11/30 13:39:09;;;;;;;;;;;22.30;49.40;;;;;;5023783;28;19917;-40
2023/11/30 13:41:35;;;;;;;;;;;22.40;49.20;;;;;;5022465;28;19941;-38
2023/11/30 13:44:02;;;;;;;;;;;22.50;49.00;;;;;;5023163;28;19925;-39
2023/11/30 13:46:28;;;;;;;;;;;22.60;49.30;;;;;;5025093;28;19921;-41
2023/11/30 13:48:54;;;;;;;;;;;22.50;49.00;;;;;;5020102;28;19917;-38
2023/11/30 13:51:20;;;;;;;;;;;22.40;49.10;;;;;;5022063;28;19980;-39
2023/11/30 13:53:46;;;;;;;;;;;22.30;49.30;;;;;;5018731;28;19913;-39
2023/11/30 13:56:12;;;;;;;;;;;22.30;49.30;;;;;;5019072;28;19920;-39
2023/11/30 13:58:37;;;;;;;;;;;22.40;49.30;;;;;;5017215;28;20002;-39
2023/11/30 14:01:04;;;;;;;;;;;22.40;49.00;;;;;;5035120;28;19917;-39
2023/11/30 14:03:29;;;;;;;;;;;22.50;49.50;;;;;;5079141;28;19912;-39
2023/11/30 14:05:56;;;;;;;;;;;22.50;49.20;;;;;;5076762;28;19955;-39
2023/11/30 14:08:22;;;;;;;;;;;22.40;49.10;;;;;;5081812;28;19916;-38
2023/11/30 14:10:48;;;;;;;;;;;22.20;49.40;;;;;;5082663;28;19909;-38
2023/11/30 14:13:14;;;;;;;;;;;22.20;49.50;;;;;;5082835;28;20013;-39